createdAt,value
2022-12-03T00:02:04.635Z,4.10
2022-12-03T00:04:32.970Z,4.00
2022-12-03T00:07:00.038Z,3.90
2022-12-03T00:09:36.980Z,4.00
2022-12-03T00:12:04.307Z,4.00
2022-12-03T00:14:42.867Z,3.90
2022-12-03T00:17:11.640Z,4.00
2022-12-03T00:19:39.927Z,4.00
2022-12-03T00:22:06.908Z,4.00
2022-12-03T00:24:34.380Z,4.00
2022-12-03T00:27:07.085Z,4.10
2022-12-03T00:29:39.732Z,4.10
2022-12-03T00:32:09.738Z,4.10
2022-12-03T00:34:36.691Z,4.10
2022-12-03T00:37:05.084Z,4.10
2022-12-03T00:39:32.004Z,4.10
2022-12-03T00:42:04.250Z,4.10
2022-12-03T00:44:31.168Z,4.10
2022-12-03T00:46:58.262Z,4.00
2022-12-03T00:49:28.092Z,4.00
2022-12-03T00:51:55.135Z,4.00
2022-12-03T00:54:26.967Z,3.90
2022-12-03T00:56:58.567Z,3.90
2022-12-03T00:59:28.627Z,4.00
2022-12-03T01:01:55.716Z,4.00
2022-12-03T01:04:22.865Z,4.00
2022-12-03T01:06:49.938Z,4.00
2022-12-03T01:09:17.038Z,3.90
2022-12-03T01:11:45.408Z,4.00
2022-12-03T01:14:18.429Z,4.00
2022-12-03T01:16:45.943Z,4.00
2022-12-03T01:19:21.243Z,4.00
2022-12-03T01:22:06.039Z,4.00
2022-12-03T01:24:36.132Z,4.00
2022-12-03T01:27:04.499Z,4.10
2022-12-03T01:29:31.461Z,4.10
2022-12-03T01:32:16.734Z,4.10
2022-12-03T01:34:43.918Z,4.10
2022-12-03T01:37:10.941Z,4.10
2022-12-03T01:39:40.697Z,4.10
2022-12-03T01:42:25.429Z,4.10
2022-12-03T01:44:57.314Z,4.10
2022-12-03T01:47:28.032Z,4.10
2022-12-03T01:50:03.928Z,4.10
2022-12-03T01:52:39.096Z,4.10
2022-12-03T01:55:14.240Z,4.10
2022-12-03T01:57:45.619Z,4.10
2022-12-03T02:00:17.256Z,4.10
2022-12-03T02:02:45.558Z,4.00
2022-12-03T02:05:26.460Z,4.00
2022-12-03T02:07:55.008Z,4.00
2022-12-03T02:10:25.728Z,4.00
2022-12-03T02:12:58.932Z,4.00
2022-12-03T02:15:29.215Z,4.10
2022-12-03T02:17:59.432Z,4.10
2022-12-03T02:20:26.624Z,4.20
2022-12-03T02:23:08.250Z,4.20
2022-12-03T02:25:37.881Z,4.10
2022-12-03T02:28:09.621Z,4.10
2022-12-03T02:30:44.219Z,4.10
2022-12-03T02:33:11.234Z,4.10
2022-12-03T02:35:39.558Z,4.10
2022-12-03T02:38:12.004Z,4.10
2022-12-03T02:40:44.930Z,4.10
2022-12-03T02:43:14.742Z,4.10
2022-12-03T02:45:48.043Z,4.10
2022-12-03T02:48:18.282Z,4.10
2022-12-03T02:50:50.728Z,4.10
2022-12-03T02:53:20.812Z,4.10
2022-12-03T02:55:58.901Z,4.10
2022-12-03T02:58:28.707Z,4.10
2022-12-03T03:00:56.503Z,4.10
2022-12-03T03:03:24.958Z,4.10
2022-12-03T03:05:57.460Z,4.10
2022-12-03T03:08:25.680Z,4.10
2022-12-03T03:10:53.065Z,4.10
2022-12-03T03:13:21.676Z,4.00
2022-12-03T03:15:51.828Z,4.10
2022-12-03T03:18:19.184Z,4.10
2022-12-03T03:20:46.371Z,4.10
2022-12-03T03:23:17.578Z,4.20
2022-12-03T03:25:47.500Z,4.20
2022-12-03T03:28:21.828Z,4.10
2022-12-03T03:30:48.927Z,4.20
2022-12-03T03:33:21.211Z,4.10
2022-12-03T03:35:50.876Z,4.20
2022-12-03T03:38:20.019Z,4.10
2022-12-03T03:40:52.061Z,4.10
2022-12-03T03:43:24.354Z,4.10
2022-12-03T03:45:52.455Z,4.10
2022-12-03T03:48:22.757Z,4.10
2022-12-03T03:50:53.011Z,4.10
2022-12-03T03:53:26.665Z,4.10
2022-12-03T03:55:53.762Z,4.10
2022-12-03T03:58:20.794Z,4.10
2022-12-03T04:00:49.216Z,4.10
2022-12-03T04:03:16.287Z,4.10
2022-12-03T04:05:43.288Z,4.20
2022-12-03T04:08:10.435Z,4.10
2022-12-03T04:10:59.253Z,4.10
2022-12-03T04:13:26.225Z,4.10
2022-12-03T04:16:09.523Z,4.20
2022-12-03T04:18:43.016Z,4.10
2022-12-03T04:21:32.538Z,4.20
2022-12-03T04:23:59.884Z,4.20
2022-12-03T04:26:56.462Z,4.10
2022-12-03T04:29:29.199Z,4.10
2022-12-03T04:32:16.318Z,4.10
2022-12-03T04:35:01.939Z,4.10
2022-12-03T04:37:31.687Z,4.10
2022-12-03T04:39:59.014Z,4.10
2022-12-03T04:42:25.993Z,4.10
2022-12-03T04:44:53.300Z,4.10
2022-12-03T04:47:22.523Z,4.10
2022-12-03T04:49:51.314Z,4.10
2022-12-03T04:52:20.795Z,4.10
2022-12-03T04:54:50.583Z,4.10
2022-12-03T04:57:23.276Z,4.10
2022-12-03T04:59:50.208Z,4.10
2022-12-03T05:02:21.209Z,4.10
2022-12-03T05:04:48.298Z,4.10
2022-12-03T05:07:15.299Z,4.00
2022-12-03T05:09:42.255Z,4.00
2022-12-03T05:12:13.116Z,4.00
2022-12-03T05:14:40.051Z,4.00
2022-12-03T05:17:09.869Z,4.00
2022-12-03T05:20:00.174Z,4.00
2022-12-03T05:22:32.978Z,4.00
2022-12-03T05:25:03.250Z,4.10
2022-12-03T05:27:30.160Z,4.10
2022-12-03T05:29:57.173Z,4.00
2022-12-03T05:32:24.155Z,4.00
2022-12-03T05:34:53.110Z,4.10
2022-12-03T05:37:23.404Z,4.00
2022-12-03T05:39:50.324Z,4.00
2022-12-03T05:42:38.218Z,4.00
2022-12-03T05:45:18.623Z,4.00
2022-12-03T05:47:45.628Z,4.00
2022-12-03T05:50:14.117Z,4.00
2022-12-03T05:52:41.056Z,4.10
2022-12-03T05:55:10.006Z,4.00
2022-12-03T05:57:36.997Z,4.10
2022-12-03T06:00:06.980Z,4.10
2022-12-03T06:02:34.150Z,4.00
2022-12-03T06:05:01.200Z,4.10
2022-12-03T06:07:29.639Z,4.10
2022-12-03T06:09:56.575Z,4.00
2022-12-03T06:12:23.545Z,4.00
2022-12-03T06:14:50.802Z,3.90
2022-12-03T06:17:17.848Z,4.00
2022-12-03T06:19:44.756Z,4.00
2022-12-03T06:22:11.802Z,4.00
2022-12-03T06:24:42.748Z,4.00
2022-12-03T06:27:09.765Z,4.00
2022-12-03T06:29:36.939Z,4.00
2022-12-03T06:32:03.987Z,4.00
2022-12-03T06:34:37.149Z,4.00
2022-12-03T06:37:06.926Z,4.00
2022-12-03T06:39:36.798Z,4.00
2022-12-03T06:42:05.536Z,4.00
2022-12-03T06:44:32.962Z,4.00
2022-12-03T06:47:00.058Z,4.00
2022-12-03T06:49:27.158Z,3.90
2022-12-03T06:52:00.235Z,4.00
2022-12-03T06:54:27.309Z,3.90
2022-12-03T06:56:54.245Z,3.90
2022-12-03T06:59:22.631Z,4.00
2022-12-03T07:01:49.921Z,4.00
2022-12-03T07:04:17.113Z,4.00
2022-12-03T07:06:44.064Z,4.00
2022-12-03T07:09:16.608Z,3.90
2022-12-03T07:11:43.669Z,4.00
2022-12-03T07:14:13.593Z,4.00
2022-12-03T07:16:43.411Z,4.00
2022-12-03T07:19:11.463Z,3.90
2022-12-03T07:21:56.369Z,3.90
2022-12-03T07:24:29.141Z,3.90
2022-12-03T07:26:56.142Z,3.90
2022-12-03T07:29:23.276Z,4.00
2022-12-03T07:31:51.756Z,4.00
2022-12-03T07:34:18.807Z,4.00
2022-12-03T07:36:46.035Z,4.00
2022-12-03T07:39:13.326Z,4.00
2022-12-03T07:41:40.285Z,4.00
2022-12-03T07:44:13.782Z,4.00
2022-12-03T07:46:42.747Z,4.00
2022-12-03T07:49:12.275Z,4.10
2022-12-03T07:51:43.005Z,4.00
2022-12-03T07:54:12.696Z,3.90
2022-12-03T07:56:45.213Z,4.00
2022-12-03T07:59:12.123Z,4.00
2022-12-03T08:01:39.223Z,4.10
2022-12-03T08:04:06.306Z,4.10
2022-12-03T08:06:40.353Z,4.20
2022-12-03T08:09:08.107Z,4.20
2022-12-03T08:11:37.110Z,4.20
2022-12-03T08:14:11.386Z,4.20
2022-12-03T08:16:40.544Z,4.20
2022-12-03T08:19:11.197Z,4.10
2022-12-03T08:21:40.307Z,4.20
2022-12-03T08:24:15.586Z,4.20
2022-12-03T08:26:47.605Z,4.30
2022-12-03T08:29:19.827Z,4.20
2022-12-03T08:31:55.132Z,4.30
2022-12-03T08:34:24.748Z,4.30
2022-12-03T08:36:59.838Z,4.30
2022-12-03T08:39:31.262Z,4.30
2022-12-03T08:42:36.167Z,4.30
2022-12-03T08:45:39.813Z,4.30
2022-12-03T08:48:33.926Z,4.30
2022-12-03T08:51:20.993Z,4.20
2022-12-03T08:54:01.904Z,4.20
2022-12-03T08:56:33.787Z,4.20
2022-12-03T08:59:16.432Z,4.20
2022-12-03T09:01:45.240Z,4.30
2022-12-03T09:04:29.437Z,4.30
2022-12-03T09:07:02.518Z,4.30
2022-12-03T09:09:34.541Z,4.30
2022-12-03T09:12:02.220Z,4.30
2022-12-03T09:14:30.114Z,4.30
2022-12-03T09:16:57.354Z,4.40
2022-12-03T09:19:26.910Z,4.30
2022-12-03T09:21:57.306Z,4.20
2022-12-03T09:24:24.278Z,4.30
2022-12-03T09:26:52.764Z,4.30
2022-12-03T09:29:19.805Z,4.30
2022-12-03T09:31:49.853Z,4.30
2022-12-03T09:34:19.446Z,4.40
2022-12-03T09:37:01.788Z,4.40
2022-12-03T09:39:31.788Z,4.50
2022-12-03T09:42:00.464Z,4.50
2022-12-03T09:44:29.524Z,4.50
2022-12-03T09:46:59.954Z,4.50
2022-12-03T09:49:28.090Z,4.50
2022-12-03T09:52:03.323Z,4.50
2022-12-03T09:54:32.229Z,4.60
2022-12-03T09:57:03.946Z,4.60
2022-12-03T09:59:35.090Z,4.60
2022-12-03T10:02:02.869Z,4.60
2022-12-03T10:04:30.523Z,4.60
2022-12-03T10:06:58.958Z,4.60
2022-12-03T10:09:29.549Z,4.70
2022-12-03T10:11:59.616Z,4.70
2022-12-03T10:14:28.732Z,4.80
2022-12-03T10:16:59.906Z,4.70
2022-12-03T10:19:30.055Z,4.70
2022-12-03T10:21:57.497Z,4.70
2022-12-03T10:24:30.195Z,4.80
2022-12-03T10:26:59.898Z,4.80
2022-12-03T10:29:34.868Z,4.80
2022-12-03T10:32:05.818Z,4.80
2022-12-03T10:34:35.165Z,4.80
2022-12-03T10:37:16.154Z,4.80
2022-12-03T10:40:02.345Z,4.80
2022-12-03T10:42:38.126Z,4.80
2022-12-03T10:45:17.001Z,4.70
2022-12-03T10:48:02.375Z,4.80
2022-12-03T10:50:29.771Z,4.70
2022-12-03T10:52:56.876Z,4.70
2022-12-03T10:55:24.196Z,4.70
2022-12-03T10:57:51.393Z,4.80
2022-12-03T11:00:23.520Z,4.80
2022-12-03T11:02:56.698Z,4.70
2022-12-03T11:05:27.327Z,4.70
2022-12-03T11:07:54.875Z,4.80
2022-12-03T11:10:22.399Z,4.80
2022-12-03T11:13:50.445Z,4.80
2022-12-03T11:17:11.111Z,4.80
2022-12-03T11:19:52.904Z,4.80
2022-12-03T11:22:44.873Z,4.80
2022-12-03T11:25:50.912Z,4.80
2022-12-03T11:28:51.432Z,4.70
2022-12-03T11:31:40.746Z,4.70
2022-12-03T11:34:40.479Z,4.70
2022-12-03T11:37:28.575Z,4.70
2022-12-03T11:40:39.494Z,4.80
2022-12-03T11:43:10.563Z,4.80
2022-12-03T11:45:40.849Z,4.80
2022-12-03T11:48:14.276Z,4.80
2022-12-03T11:50:44.026Z,4.90
2022-12-03T11:53:19.476Z,4.90
2022-12-03T11:55:53.062Z,4.90
2022-12-03T11:58:25.919Z,4.90
2022-12-03T12:00:55.702Z,4.90
2022-12-03T12:03:26.396Z,4.90
2022-12-03T12:06:07.326Z,4.90
2022-12-03T12:08:39.005Z,4.90
2022-12-03T12:11:17.711Z,4.90
2022-12-03T12:13:55.603Z,4.90
2022-12-03T12:16:52.476Z,4.90
2022-12-03T12:19:41.165Z,4.90
2022-12-03T12:22:17.808Z,4.90
2022-12-03T12:24:51.712Z,4.90
2022-12-03T12:27:21.636Z,4.80
2022-12-03T12:29:54.731Z,4.80
2022-12-03T12:32:31.747Z,4.90
2022-12-03T12:35:25.777Z,4.90
2022-12-03T12:37:59.704Z,4.90
2022-12-03T12:40:30.972Z,4.90
2022-12-03T12:43:23.472Z,4.90
2022-12-03T12:45:55.250Z,5.00
2022-12-03T12:48:31.672Z,4.90
2022-12-03T12:51:09.582Z,4.90
2022-12-03T12:53:39.494Z,4.90
2022-12-03T12:56:23.226Z,4.90
2022-12-03T12:58:54.300Z,4.80
2022-12-03T13:01:26.162Z,4.80
2022-12-03T13:03:53.702Z,4.80
2022-12-03T13:06:26.072Z,4.80
2022-12-03T13:08:57.241Z,4.90
2022-12-03T13:11:36.977Z,4.90
2022-12-03T13:14:15.743Z,4.90
2022-12-03T13:16:43.351Z,4.80
2022-12-03T13:19:24.863Z,4.80
2022-12-03T13:21:53.989Z,4.90
2022-12-03T13:24:35.231Z,4.90
2022-12-03T13:27:25.526Z,4.90
2022-12-03T13:29:57.252Z,4.90
2022-12-03T13:32:31.069Z,4.90
2022-12-03T13:35:04.497Z,4.90
2022-12-03T13:37:32.373Z,4.90
2022-12-03T13:40:18.802Z,4.90
2022-12-03T13:42:54.374Z,4.90
2022-12-03T13:45:32.057Z,4.90
2022-12-03T13:48:01.557Z,5.00
2022-12-03T13:50:34.898Z,4.90
2022-12-03T13:53:07.386Z,4.90
2022-12-03T13:55:34.951Z,5.00
2022-12-03T13:58:16.664Z,5.00
2022-12-03T14:00:44.100Z,4.90
2022-12-03T14:03:11.136Z,4.90
2022-12-03T14:05:38.415Z,4.80
2022-12-03T14:08:06.158Z,4.80
2022-12-03T14:10:38.869Z,4.80
2022-12-03T14:13:07.222Z,4.80
2022-12-03T14:15:36.470Z,4.80
2022-12-03T14:18:03.737Z,4.80
2022-12-03T14:20:30.735Z,4.80
2022-12-03T14:22:59.678Z,4.80
2022-12-03T14:25:26.969Z,4.70
2022-12-03T14:27:54.141Z,4.80
2022-12-03T14:30:22.404Z,4.70
2022-12-03T14:32:52.394Z,4.70
2022-12-03T14:35:19.495Z,4.70
2022-12-03T14:37:46.544Z,4.80
2022-12-03T14:40:21.788Z,4.80
2022-12-03T14:42:49.184Z,4.80
2022-12-03T14:45:20.199Z,4.80
2022-12-03T14:47:48.469Z,4.80
2022-12-03T14:50:18.529Z,4.90
2022-12-03T14:52:48.328Z,4.90
2022-12-03T14:55:15.440Z,4.80
2022-12-03T14:57:42.528Z,4.80
2022-12-03T15:00:11.387Z,4.80
2022-12-03T15:02:38.527Z,4.80
2022-12-03T15:05:08.070Z,4.80
2022-12-03T15:07:35.175Z,4.80
2022-12-03T15:10:02.321Z,4.90
2022-12-03T15:12:29.541Z,4.80
2022-12-03T15:14:57.913Z,4.80
2022-12-03T15:17:31.339Z,4.80
2022-12-03T15:19:58.884Z,4.70
2022-12-03T15:22:27.297Z,4.70
2022-12-03T15:24:54.519Z,4.80
2022-12-03T15:27:21.807Z,4.70
2022-12-03T15:29:51.746Z,4.70
2022-12-03T15:32:18.973Z,4.60
2022-12-03T15:34:46.215Z,4.70
2022-12-03T15:37:14.771Z,4.70
2022-12-03T15:39:48.507Z,4.70
2022-12-03T15:42:16.009Z,4.70
2022-12-03T15:44:43.076Z,4.70
2022-12-03T15:47:10.185Z,4.70
2022-12-03T15:49:37.148Z,4.70
2022-12-03T15:52:04.570Z,4.60
2022-12-03T15:54:31.690Z,4.60
2022-12-03T15:56:59.990Z,4.60
2022-12-03T15:59:34.240Z,4.60
2022-12-03T16:02:01.358Z,4.60
2022-12-03T16:04:28.381Z,4.60
2022-12-03T16:06:58.543Z,4.60
2022-12-03T16:09:27.681Z,4.60
2022-12-03T16:11:59.067Z,4.60
2022-12-03T16:14:25.924Z,4.50
2022-12-03T16:16:53.010Z,4.60
2022-12-03T16:19:20.094Z,4.60
2022-12-03T16:21:47.407Z,4.60
2022-12-03T16:24:20.513Z,4.60
2022-12-03T16:26:50.209Z,4.50
2022-12-03T16:29:21.411Z,4.60
2022-12-03T16:31:48.303Z,4.60
2022-12-03T16:34:15.393Z,4.60
2022-12-03T16:36:42.467Z,4.60
2022-12-03T16:39:09.445Z,4.60
2022-12-03T16:41:38.591Z,4.60
2022-12-03T16:44:06.250Z,4.50
2022-12-03T16:46:34.759Z,4.60
2022-12-03T16:49:01.780Z,4.60
2022-12-03T16:51:30.253Z,4.60
2022-12-03T16:53:57.294Z,4.60
2022-12-03T16:56:24.355Z,4.60
2022-12-03T16:58:51.291Z,4.60
2022-12-03T17:01:23.491Z,4.50
2022-12-03T17:03:51.878Z,4.50
2022-12-03T17:06:19.599Z,4.50
2022-12-03T17:08:49.757Z,4.50
2022-12-03T17:11:17.764Z,4.50
2022-12-03T17:13:45.114Z,4.50
2022-12-03T17:16:12.866Z,4.50
2022-12-03T17:18:40.400Z,4.50
2022-12-03T17:21:09.050Z,4.50
2022-12-03T17:23:36.495Z,4.50
2022-12-03T17:26:06.377Z,4.50
2022-12-03T17:28:33.296Z,4.50
2022-12-03T17:31:00.299Z,4.40
2022-12-03T17:33:27.236Z,4.40
2022-12-03T17:36:00.094Z,4.40
2022-12-03T17:38:29.852Z,4.40
2022-12-03T17:40:58.937Z,4.40
2022-12-03T17:43:25.998Z,4.40
2022-12-03T17:45:53.392Z,4.40
2022-12-03T17:48:23.088Z,4.40
2022-12-03T17:50:50.268Z,4.40
2022-12-03T17:53:17.150Z,4.40
2022-12-03T17:55:46.888Z,4.50
2022-12-03T17:58:14.272Z,4.40
2022-12-03T18:00:41.389Z,4.40
2022-12-03T18:03:08.528Z,4.50
2022-12-03T18:05:41.613Z,4.40
2022-12-03T18:08:08.873Z,4.50
2022-12-03T18:10:36.316Z,4.50
2022-12-03T18:13:04.861Z,4.50
2022-12-03T18:15:32.741Z,4.50
2022-12-03T18:17:59.894Z,4.50
2022-12-03T18:20:26.959Z,4.40
2022-12-03T18:22:57.831Z,4.40
2022-12-03T18:25:25.000Z,4.40
2022-12-03T18:27:52.091Z,4.40
2022-12-03T18:30:23.494Z,4.40
2022-12-03T18:32:50.838Z,4.40
2022-12-03T18:35:20.460Z,4.40
2022-12-03T18:37:49.290Z,4.40
2022-12-03T18:40:20.236Z,4.40
2022-12-03T18:42:58.676Z,4.40
2022-12-03T18:45:27.549Z,4.40
2022-12-03T18:47:54.816Z,4.40
2022-12-03T18:50:22.131Z,4.40
2022-12-03T18:52:49.079Z,4.40
2022-12-03T18:55:19.580Z,4.40
2022-12-03T18:57:46.587Z,4.40
2022-12-03T19:00:15.270Z,4.50
2022-12-03T19:03:02.456Z,4.50
2022-12-03T19:05:32.333Z,4.50
2022-12-03T19:07:59.499Z,4.50
2022-12-03T19:10:27.132Z,4.40
2022-12-03T19:12:56.201Z,4.40
2022-12-03T19:15:24.023Z,4.40
2022-12-03T19:17:52.465Z,4.40
2022-12-03T19:20:19.815Z,4.40
2022-12-03T19:22:50.097Z,4.40
2022-12-03T19:25:17.500Z,4.40
2022-12-03T19:27:44.730Z,4.40
2022-12-03T19:30:12.942Z,4.40
2022-12-03T19:32:40.144Z,4.50
2022-12-03T19:35:11.438Z,4.50
2022-12-03T19:37:38.949Z,4.60
2022-12-03T19:40:10.159Z,4.50
2022-12-03T19:42:37.152Z,4.60
2022-12-03T19:45:05.655Z,4.50
2022-12-03T19:47:34.306Z,4.50
2022-12-03T19:50:01.301Z,4.40
2022-12-03T19:52:29.786Z,4.50
2022-12-03T19:54:57.109Z,4.50
2022-12-03T19:57:24.041Z,4.50
2022-12-03T19:59:51.099Z,4.50
2022-12-03T20:02:18.092Z,4.50
2022-12-03T20:04:45.277Z,4.50
2022-12-03T20:07:12.215Z,4.50
2022-12-03T20:09:40.494Z,4.50
2022-12-03T20:12:07.694Z,4.50
2022-12-03T20:14:34.586Z,4.50
2022-12-03T20:17:01.644Z,4.50
2022-12-03T20:19:28.689Z,4.50
2022-12-03T20:22:02.088Z,4.50
2022-12-03T20:24:29.718Z,4.50
2022-12-03T20:26:58.058Z,4.50
2022-12-03T20:29:25.074Z,4.50
2022-12-03T20:31:52.295Z,4.50
2022-12-03T20:34:19.305Z,4.50
2022-12-03T20:36:46.325Z,4.60
2022-12-03T20:39:13.305Z,4.60
2022-12-03T20:41:40.345Z,4.50
2022-12-03T20:44:09.639Z,4.50
2022-12-03T20:46:36.767Z,4.50
2022-12-03T20:49:04.307Z,4.50
2022-12-03T20:51:32.086Z,4.50
2022-12-03T20:54:01.073Z,4.50
2022-12-03T20:56:37.214Z,4.50
2022-12-03T20:59:07.418Z,4.50
2022-12-03T21:01:36.534Z,4.50
2022-12-03T21:04:04.916Z,4.40
2022-12-03T21:06:34.107Z,4.50
2022-12-03T21:09:01.708Z,4.50
2022-12-03T21:11:31.249Z,4.50
2022-12-03T21:14:00.156Z,4.50
2022-12-03T21:16:59.089Z,4.60
2022-12-03T21:19:25.818Z,4.50
2022-12-03T21:21:55.762Z,4.50
2022-12-03T21:24:22.879Z,4.50
2022-12-03T21:26:50.208Z,4.50
2022-12-03T21:29:18.203Z,4.50
2022-12-03T21:31:45.196Z,4.50
2022-12-03T21:34:12.265Z,4.50
2022-12-03T21:36:43.735Z,4.50
2022-12-03T21:39:10.750Z,4.50
2022-12-03T21:41:37.798Z,4.50
2022-12-03T21:44:04.958Z,4.50
2022-12-03T21:47:10.159Z,4.50
2022-12-03T21:49:22.741Z,4.50
2022-12-03T21:51:51.234Z,4.50
2022-12-03T21:54:18.389Z,4.50
2022-12-03T21:56:45.734Z,4.50
2022-12-03T21:59:12.731Z,4.50
2022-12-03T22:01:46.935Z,4.50
2022-12-03T22:04:14.504Z,4.50
2022-12-03T22:06:41.673Z,4.50
2022-12-03T22:09:10.396Z,4.50
2022-12-03T22:11:38.623Z,4.50
2022-12-03T22:14:08.151Z,4.50
2022-12-03T22:16:35.332Z,4.50
2022-12-03T22:19:02.438Z,4.50
2022-12-03T22:21:32.322Z,4.40
2022-12-03T22:23:59.673Z,4.40
2022-12-03T22:26:35.202Z,4.30
2022-12-03T22:29:12.069Z,4.30
2022-12-03T22:31:39.339Z,4.40
2022-12-03T22:34:06.367Z,4.40
2022-12-03T22:36:43.550Z,4.40
2022-12-03T22:39:13.469Z,4.40
2022-12-03T22:41:49.271Z,4.40
2022-12-03T22:44:19.044Z,4.40
2022-12-03T22:46:46.172Z,4.40
2022-12-03T22:49:14.993Z,4.40
2022-12-03T22:51:46.459Z,4.40
2022-12-03T22:54:20.780Z,4.30
2022-12-03T22:56:52.079Z,4.40
2022-12-03T22:59:19.229Z,4.40
2022-12-03T23:01:46.244Z,4.40
2022-12-03T23:04:13.251Z,4.30
2022-12-03T23:06:40.442Z,4.30
2022-12-03T23:09:10.557Z,4.20
2022-12-03T23:11:40.697Z,4.20
2022-12-03T23:14:08.976Z,4.20
2022-12-03T23:16:44.945Z,4.20
2022-12-03T23:19:11.883Z,4.20
2022-12-03T23:21:38.983Z,4.20
2022-12-03T23:24:07.720Z,4.20
2022-12-03T23:26:36.729Z,4.20
2022-12-03T23:29:06.458Z,4.20
2022-12-03T23:31:35.243Z,4.20
2022-12-03T23:34:02.658Z,4.20
2022-12-03T23:36:31.351Z,4.30
2022-12-03T23:38:58.500Z,4.20
2022-12-03T23:41:25.854Z,4.30
2022-12-03T23:43:53.456Z,4.30
2022-12-03T23:46:22.204Z,4.30
2022-12-03T23:48:59.027Z,4.30
2022-12-03T23:51:26.596Z,4.30
2022-12-03T23:53:55.573Z,4.20
2022-12-03T23:56:26.537Z,4.20
2022-12-03T23:58:59.993Z,4.20
